createdAt,value
2017-09-08T00:00:44.924Z,22.81
2017-09-08T00:02:47.458Z,22.77
2017-09-08T00:04:49.931Z,22.84
2017-09-08T00:06:52.404Z,22.89
2017-09-08T00:08:54.968Z,22.85
2017-09-08T00:10:57.404Z,22.88
2017-09-08T00:12:59.873Z,22.78
2017-09-08T00:15:02.356Z,22.72
2017-09-08T00:17:04.793Z,22.77
2017-09-08T00:19:07.404Z,22.81
2017-09-08T00:21:09.880Z,22.81
2017-09-08T00:23:12.326Z,22.81
2017-09-08T00:25:14.793Z,22.84
2017-09-08T00:27:17.239Z,22.87
2017-09-08T00:29:19.749Z,22.85
2017-09-08T00:31:22.370Z,22.85
2017-09-08T00:33:24.965Z,22.72
2017-09-08T00:35:27.532Z,22.74
2017-09-08T00:37:30.068Z,22.80
2017-09-08T00:39:32.779Z,22.83
2017-09-08T00:41:35.352Z,22.86
2017-09-08T00:43:37.948Z,22.78
2017-09-08T00:45:40.440Z,22.84
2017-09-08T00:47:42.973Z,22.80
2017-09-08T00:49:45.540Z,22.81
2017-09-08T00:51:48.810Z,22.84
2017-09-08T00:53:51.325Z,22.76
2017-09-08T00:55:53.810Z,22.83
2017-09-08T00:57:56.276Z,22.81
2017-09-08T00:59:58.757Z,22.83
2017-09-08T01:02:01.290Z,22.67
2017-09-08T01:04:03.735Z,22.73
2017-09-08T01:06:06.189Z,22.80
2017-09-08T01:08:08.653Z,22.86
2017-09-08T01:10:11.108Z,22.86
2017-09-08T01:12:13.563Z,22.85
2017-09-08T01:14:16.084Z,22.83
2017-09-08T01:16:18.574Z,22.78
2017-09-08T01:18:21.046Z,22.84
2017-09-08T01:20:23.596Z,22.82
2017-09-08T01:22:26.098Z,22.79
2017-09-08T01:24:28.539Z,22.80
2017-09-08T01:26:31.134Z,22.81
2017-09-08T01:28:33.648Z,22.72
2017-09-08T01:30:36.120Z,22.72
2017-09-08T01:32:38.737Z,22.72
2017-09-08T01:34:41.217Z,22.82
2017-09-08T01:36:43.724Z,22.83
2017-09-08T01:38:46.447Z,22.83
2017-09-08T01:40:48.976Z,22.82
2017-09-08T01:42:51.588Z,22.72
2017-09-08T01:44:54.136Z,22.73
2017-09-08T01:46:56.732Z,22.77
2017-09-08T01:48:59.190Z,22.82
2017-09-08T01:51:01.735Z,22.75
2017-09-08T01:53:05.981Z,22.76
2017-09-08T01:55:08.596Z,22.79
2017-09-08T01:57:11.089Z,22.71
2017-09-08T01:59:13.543Z,22.70
2017-09-08T02:01:16.075Z,22.63
2017-09-08T02:03:18.585Z,22.69
2017-09-08T02:05:21.120Z,22.70
2017-09-08T02:07:23.735Z,22.73
2017-09-08T02:09:26.254Z,22.71
2017-09-08T02:11:28.791Z,22.71
2017-09-08T02:13:31.476Z,22.72
2017-09-08T02:15:33.954Z,22.72
2017-09-08T02:17:36.436Z,22.71
2017-09-08T02:19:38.946Z,22.66
2017-09-08T02:21:47.148Z,22.68
2017-09-08T02:23:50.547Z,22.72
2017-09-08T02:25:53.044Z,22.76
2017-09-08T02:27:55.526Z,22.78
2017-09-08T02:29:57.999Z,22.71
2017-09-08T02:32:00.444Z,22.65
2017-09-08T02:34:02.929Z,22.66
2017-09-08T02:36:05.426Z,22.68
2017-09-08T02:38:07.883Z,22.68
2017-09-08T02:40:10.429Z,22.72
2017-09-08T02:42:12.972Z,22.82
2017-09-08T02:44:15.536Z,22.65
2017-09-08T02:46:18.015Z,22.68
2017-09-08T02:48:20.487Z,22.72
2017-09-08T02:50:22.930Z,22.67
2017-09-08T02:52:25.441Z,22.73
2017-09-08T02:54:29.648Z,22.68
2017-09-08T02:56:32.188Z,22.75
2017-09-08T02:58:34.809Z,22.72
2017-09-08T03:00:37.355Z,22.70
2017-09-08T03:02:39.969Z,22.70
2017-09-08T03:04:42.464Z,22.74
2017-09-08T03:06:45.024Z,22.67
2017-09-08T03:08:47.650Z,22.69
2017-09-08T03:10:50.204Z,22.68
2017-09-08T03:12:52.668Z,22.67
2017-09-08T03:14:55.145Z,22.67
2017-09-08T03:16:57.610Z,22.61
2017-09-08T03:19:00.064Z,22.62
2017-09-08T03:21:02.613Z,22.72
2017-09-08T03:23:05.186Z,22.77
2017-09-08T03:25:07.653Z,22.75
2017-09-08T03:27:10.178Z,22.65
2017-09-08T03:29:12.684Z,22.65
2017-09-08T03:31:15.246Z,22.66
2017-09-08T03:33:17.761Z,22.65
2017-09-08T03:35:20.528Z,22.66
2017-09-08T03:37:22.980Z,22.65
2017-09-08T03:39:25.518Z,22.64
2017-09-08T03:41:28.024Z,22.58
2017-09-08T03:43:30.560Z,22.55
2017-09-08T03:45:32.988Z,22.58
2017-09-08T03:47:35.552Z,22.53
2017-09-08T03:49:38.044Z,22.62
2017-09-08T03:51:40.687Z,22.63
2017-09-08T03:53:43.180Z,22.50
2017-09-08T03:55:45.995Z,22.53
2017-09-08T03:57:48.467Z,22.56
2017-09-08T03:59:50.994Z,22.52
2017-09-08T04:01:53.461Z,22.58
2017-09-08T04:03:56.041Z,22.52
2017-09-08T04:05:58.622Z,22.53
2017-09-08T04:08:01.225Z,22.49
2017-09-08T04:10:03.664Z,22.47
2017-09-08T04:12:06.269Z,22.45
2017-09-08T04:14:08.766Z,22.54
2017-09-08T04:16:11.241Z,22.57
2017-09-08T04:18:13.769Z,22.59
2017-09-08T04:20:16.293Z,22.58
2017-09-08T04:22:18.753Z,22.54
2017-09-08T04:24:21.394Z,22.45
2017-09-08T04:26:23.832Z,22.55
2017-09-08T04:28:26.425Z,22.52
2017-09-08T04:30:28.942Z,22.51
2017-09-08T04:32:31.433Z,22.52
2017-09-08T04:34:33.880Z,22.50
2017-09-08T04:36:36.380Z,22.49
2017-09-08T04:38:39.975Z,22.48
2017-09-08T04:40:42.479Z,22.50
2017-09-08T04:42:44.977Z,22.56
2017-09-08T04:44:47.468Z,22.64
2017-09-08T04:46:49.965Z,22.63
2017-09-08T04:48:52.684Z,22.62
2017-09-08T04:50:55.225Z,22.65
2017-09-08T04:52:57.670Z,22.58
2017-09-08T04:55:00.164Z,22.56
2017-09-08T04:57:02.768Z,22.58
2017-09-08T04:59:05.244Z,22.57
2017-09-08T05:01:07.800Z,22.45
2017-09-08T05:03:10.381Z,22.51
2017-09-08T05:05:13.032Z,22.50
2017-09-08T05:07:15.633Z,22.57
2017-09-08T05:09:18.165Z,22.56
2017-09-08T05:11:20.631Z,22.39
2017-09-08T05:13:23.156Z,22.44
2017-09-08T05:15:25.668Z,22.50
2017-09-08T05:17:28.168Z,22.53
2017-09-08T05:19:30.704Z,22.48
2017-09-08T05:21:33.158Z,22.48
2017-09-08T05:23:35.692Z,22.56
2017-09-08T05:25:38.193Z,22.50
2017-09-08T05:27:40.683Z,22.48
2017-09-08T05:29:43.144Z,22.47
2017-09-08T05:31:45.719Z,22.58
2017-09-08T05:33:48.177Z,22.58
2017-09-08T05:35:50.721Z,22.52
2017-09-08T05:37:53.264Z,22.55
2017-09-08T05:39:55.728Z,22.51
2017-09-08T05:41:58.276Z,22.52
2017-09-08T05:44:00.780Z,22.53
2017-09-08T05:46:03.281Z,22.44
2017-09-08T05:48:05.851Z,22.49
2017-09-08T05:50:08.366Z,22.58
2017-09-08T05:52:10.999Z,22.58
2017-09-08T05:54:14.522Z,22.59
2017-09-08T05:56:17.036Z,22.63
2017-09-08T05:58:19.543Z,22.72
2017-09-08T06:00:22.101Z,22.76
2017-09-08T06:02:24.770Z,22.81
2017-09-08T06:04:27.253Z,22.82
2017-09-08T06:06:29.745Z,22.78
2017-09-08T06:08:32.308Z,22.83
2017-09-08T06:10:34.757Z,22.86
2017-09-08T06:12:37.300Z,22.83
2017-09-08T06:14:39.800Z,22.90
2017-09-08T06:16:42.353Z,22.86
2017-09-08T06:18:46.392Z,22.84
2017-09-08T06:20:49.001Z,22.88
2017-09-08T06:22:52.306Z,22.93
2017-09-08T06:24:54.748Z,22.94
2017-09-08T06:26:57.229Z,22.99
2017-09-08T06:28:59.794Z,23.01
2017-09-08T06:31:02.328Z,23.06
2017-09-08T06:33:04.902Z,23.01
2017-09-08T06:35:07.411Z,23.06
2017-09-08T06:37:09.851Z,22.90
2017-09-08T06:39:12.522Z,23.07
2017-09-08T06:41:15.056Z,23.02
2017-09-08T06:43:17.560Z,22.96
2017-09-08T06:45:20.130Z,22.87
2017-09-08T06:47:22.565Z,23.01
2017-09-08T06:49:25.013Z,23.01
2017-09-08T06:51:27.547Z,23.01
2017-09-08T06:53:29.974Z,22.93
2017-09-08T06:55:32.485Z,23.03
2017-09-08T06:57:35.122Z,23.13
2017-09-08T06:59:37.633Z,23.22
2017-09-08T07:01:40.146Z,23.15
2017-09-08T07:03:42.609Z,23.14
2017-09-08T07:05:45.128Z,23.15
2017-09-08T07:07:47.714Z,23.12
2017-09-08T07:09:50.255Z,23.14
2017-09-08T07:11:52.860Z,23.12
2017-09-08T07:13:55.406Z,23.13
2017-09-08T07:15:57.930Z,23.11
2017-09-08T07:18:00.408Z,23.22
2017-09-08T07:20:02.912Z,23.21
2017-09-08T07:22:05.392Z,23.32
2017-09-08T07:24:07.887Z,23.19
2017-09-08T07:26:10.459Z,23.15
2017-09-08T07:28:12.996Z,23.24
2017-09-08T07:30:15.512Z,23.23
2017-09-08T07:32:18.052Z,23.26
2017-09-08T07:34:20.546Z,23.19
2017-09-08T07:36:23.124Z,23.19
2017-09-08T07:38:25.583Z,23.09
2017-09-08T07:40:28.071Z,23.20
2017-09-08T07:42:30.611Z,23.23
2017-09-08T07:44:33.202Z,23.17
2017-09-08T07:46:35.752Z,23.24
2017-09-08T07:48:38.225Z,23.18
2017-09-08T07:50:40.897Z,23.23
2017-09-08T07:52:43.493Z,23.30
2017-09-08T07:54:46.079Z,23.16
2017-09-08T07:56:48.557Z,23.26
2017-09-08T07:58:51.103Z,23.20
2017-09-08T08:00:53.629Z,23.24
2017-09-08T08:02:56.155Z,23.16
2017-09-08T08:04:58.723Z,23.20
2017-09-08T08:07:01.200Z,23.06
2017-09-08T08:09:03.799Z,23.08
2017-09-08T08:11:06.378Z,23.21
2017-09-08T08:13:08.843Z,23.18
2017-09-08T08:15:11.450Z,23.14
2017-09-08T08:17:14.053Z,23.05
2017-09-08T08:19:16.578Z,23.12
2017-09-08T08:21:19.096Z,23.23
2017-09-08T08:23:21.652Z,23.27
2017-09-08T08:25:24.139Z,23.26
2017-09-08T08:27:26.586Z,23.22
2017-09-08T08:29:29.144Z,23.12
2017-09-08T08:31:31.621Z,23.20
2017-09-08T08:33:34.122Z,23.21
2017-09-08T08:35:36.727Z,23.25
2017-09-08T08:37:39.377Z,23.21
2017-09-08T08:39:41.841Z,23.19
2017-09-08T08:41:44.314Z,23.19
2017-09-08T08:43:46.763Z,23.12
2017-09-08T08:45:49.226Z,23.14
2017-09-08T08:47:51.705Z,22.96
2017-09-08T08:49:54.271Z,23.15
2017-09-08T08:51:56.729Z,23.29
2017-09-08T08:53:59.303Z,23.37
2017-09-08T08:56:01.809Z,23.31
2017-09-08T08:58:04.266Z,23.32
2017-09-08T09:00:06.741Z,23.19
2017-09-08T09:02:09.234Z,23.25
2017-09-08T09:04:11.790Z,23.29
2017-09-08T09:06:14.356Z,23.30
2017-09-08T09:08:16.841Z,23.27
2017-09-08T09:10:19.358Z,23.21
2017-09-08T09:12:21.817Z,23.31
2017-09-08T09:14:24.300Z,23.28
2017-09-08T09:16:26.736Z,23.24
2017-09-08T09:18:29.200Z,23.31
2017-09-08T09:20:31.733Z,23.24
2017-09-08T09:22:34.277Z,23.30
2017-09-08T09:24:37.004Z,23.40
2017-09-08T09:26:39.574Z,23.41
2017-09-08T09:28:42.091Z,23.43
2017-09-08T09:30:44.600Z,23.46
2017-09-08T09:32:47.168Z,23.35
2017-09-08T09:34:49.663Z,23.27
2017-09-08T09:36:52.222Z,23.26
2017-09-08T09:38:54.806Z,23.36
2017-09-08T09:40:57.373Z,23.33
2017-09-08T09:42:59.925Z,23.30
2017-09-08T09:45:02.440Z,23.23
2017-09-08T09:47:04.896Z,23.28
2017-09-08T09:49:07.367Z,23.29
2017-09-08T09:51:09.900Z,23.36
2017-09-08T09:53:12.537Z,23.47
2017-09-08T09:55:15.090Z,23.56
2017-09-08T09:57:17.672Z,23.65
2017-09-08T09:59:20.228Z,23.70
2017-09-08T10:01:22.815Z,23.78
2017-09-08T10:03:25.538Z,23.82
2017-09-08T10:05:28.048Z,23.86
2017-09-08T10:07:30.582Z,23.90
2017-09-08T10:09:33.098Z,23.92
2017-09-08T10:11:35.601Z,23.93
2017-09-08T10:13:38.096Z,23.97
2017-09-08T10:15:40.572Z,23.99
2017-09-08T10:17:43.038Z,24.01
2017-09-08T10:19:45.510Z,24.05
2017-09-08T10:21:48.115Z,24.06
2017-09-08T10:23:50.568Z,24.06
2017-09-08T10:25:53.056Z,24.09
2017-09-08T10:27:55.523Z,24.10
2017-09-08T10:29:58.012Z,24.13
2017-09-08T10:32:00.509Z,24.13
2017-09-08T10:34:02.972Z,24.11
2017-09-08T10:36:05.610Z,24.15
2017-09-08T10:38:08.093Z,24.15
2017-09-08T10:40:10.552Z,24.16
2017-09-08T10:42:13.235Z,24.18
2017-09-08T10:44:15.843Z,24.19
2017-09-08T10:46:18.337Z,24.21
2017-09-08T10:48:20.812Z,24.23
2017-09-08T10:50:23.420Z,24.26
2017-09-08T10:52:25.988Z,24.26
2017-09-08T10:54:28.467Z,24.29
2017-09-08T10:56:31.012Z,24.28
2017-09-08T10:58:33.602Z,24.26
2017-09-08T11:00:36.144Z,24.26
2017-09-08T11:02:38.742Z,24.27
2017-09-08T11:04:41.271Z,24.31
2017-09-08T11:06:43.796Z,24.29
2017-09-08T11:08:46.254Z,24.30
2017-09-08T11:10:48.748Z,24.29
2017-09-08T11:12:51.289Z,24.29
2017-09-08T11:14:53.772Z,24.29
2017-09-08T11:16:56.224Z,24.30
2017-09-08T11:18:58.707Z,24.31
2017-09-08T11:21:01.216Z,24.33
2017-09-08T11:23:03.681Z,24.33
2017-09-08T11:25:06.163Z,24.33
2017-09-08T11:27:08.732Z,24.31
2017-09-08T11:29:11.301Z,24.32
2017-09-08T11:31:13.758Z,24.31
2017-09-08T11:33:21.908Z,24.28
2017-09-08T11:35:30.130Z,24.30
2017-09-08T11:37:32.576Z,24.29
2017-09-08T11:39:35.116Z,24.30
2017-09-08T11:41:37.574Z,24.31
2017-09-08T11:43:40.056Z,24.31
2017-09-08T11:45:42.582Z,24.30
2017-09-08T11:47:45.121Z,24.31
2017-09-08T11:49:47.593Z,24.31
2017-09-08T11:51:50.057Z,24.29
2017-09-08T11:53:52.583Z,24.31
2017-09-08T11:55:55.158Z,24.30
2017-09-08T11:57:57.656Z,24.32
2017-09-08T12:00:00.269Z,24.33
2017-09-08T12:02:02.717Z,24.34
2017-09-08T12:04:05.231Z,24.34
2017-09-08T12:06:07.804Z,24.37
2017-09-08T12:08:10.241Z,24.42
2017-09-08T12:10:12.792Z,24.41
2017-09-08T12:12:15.296Z,24.44
2017-09-08T12:14:17.733Z,24.44
2017-09-08T12:16:20.225Z,24.45
2017-09-08T12:18:22.733Z,24.42
2017-09-08T12:20:25.209Z,24.45
2017-09-08T12:22:27.795Z,24.52
2017-09-08T12:24:30.333Z,24.53
2017-09-08T12:26:32.840Z,24.54
2017-09-08T12:28:35.316Z,24.54
2017-09-08T12:30:37.764Z,24.55
2017-09-08T12:32:40.215Z,24.53
2017-09-08T12:34:42.810Z,24.53
2017-09-08T12:36:45.236Z,24.50
2017-09-08T12:38:47.762Z,24.53
2017-09-08T12:40:50.228Z,24.52
2017-09-08T12:42:52.668Z,24.49
2017-09-08T12:44:55.134Z,24.53
2017-09-08T12:46:57.594Z,24.49
2017-09-08T12:49:00.056Z,24.50
2017-09-08T12:51:02.547Z,24.48
2017-09-08T12:53:05.104Z,24.47
2017-09-08T12:55:07.550Z,24.45
2017-09-08T12:57:10.039Z,24.45
2017-09-08T12:59:12.493Z,24.43
2017-09-08T13:01:14.953Z,24.40
2017-09-08T13:03:17.388Z,24.38
2017-09-08T13:05:19.962Z,24.43
2017-09-08T13:07:22.446Z,24.46
2017-09-08T13:09:24.902Z,24.46
2017-09-08T13:11:27.365Z,24.46
2017-09-08T13:13:29.880Z,24.48
2017-09-08T13:15:32.388Z,24.49
2017-09-08T13:17:34.893Z,24.48
2017-09-08T13:19:38.332Z,24.47
2017-09-08T13:21:40.852Z,24.48
2017-09-08T13:23:43.340Z,24.49
2017-09-08T13:25:45.894Z,24.49
2017-09-08T13:27:48.402Z,24.51
2017-09-08T13:29:50.902Z,24.54
2017-09-08T13:31:53.362Z,24.54
2017-09-08T13:33:55.841Z,24.54
2017-09-08T13:35:58.346Z,24.53
2017-09-08T13:38:01.048Z,24.52
2017-09-08T13:40:03.544Z,24.54
2017-09-08T13:42:06.025Z,24.48
2017-09-08T13:44:08.624Z,23.89
2017-09-08T13:46:11.108Z,23.53
2017-09-08T13:48:13.584Z,23.01
2017-09-08T13:50:16.139Z,22.85
2017-09-08T13:52:18.579Z,22.55
2017-09-08T13:54:21.048Z,22.49
2017-09-08T13:56:23.579Z,22.55
2017-09-08T13:58:26.145Z,22.37
2017-09-08T14:00:28.659Z,22.00
2017-09-08T14:02:31.108Z,22.42
2017-09-08T14:04:33.633Z,22.57
2017-09-08T14:06:36.222Z,22.53
2017-09-08T14:08:39.705Z,22.37
2017-09-08T14:10:42.237Z,22.61
2017-09-08T14:12:44.684Z,22.64
2017-09-08T14:14:47.190Z,22.48
2017-09-08T14:16:49.699Z,22.40
2017-09-08T14:18:52.179Z,22.57
2017-09-08T14:20:54.742Z,22.41
2017-09-08T14:22:57.188Z,22.46
2017-09-08T14:24:59.782Z,22.28
2017-09-08T14:27:02.252Z,22.33
2017-09-08T14:29:04.690Z,22.46
2017-09-08T14:31:07.173Z,22.50
2017-09-08T14:33:09.621Z,22.27
2017-09-08T14:35:12.427Z,22.19
2017-09-08T14:37:15.035Z,22.05
2017-09-08T14:39:17.483Z,22.03
2017-09-08T14:41:19.980Z,21.98
2017-09-08T14:43:22.628Z,22.15
2017-09-08T14:45:25.062Z,22.03
2017-09-08T14:47:27.501Z,22.13
2017-09-08T16:11:03.558Z,24.07
2017-09-08T16:13:06.094Z,24.08
2017-09-08T16:15:08.644Z,24.10
2017-09-08T16:17:12.009Z,24.12
2017-09-08T16:19:14.516Z,24.16
2017-09-08T16:21:17.108Z,24.18
2017-09-08T16:23:19.677Z,24.04
2017-09-08T16:25:22.249Z,24.02
2017-09-08T16:27:24.679Z,23.97
2017-09-08T16:29:27.180Z,23.89
2017-09-08T16:31:29.761Z,23.83
2017-09-08T16:33:32.223Z,23.82
2017-09-08T16:35:34.714Z,23.87
2017-09-08T16:37:37.192Z,23.83
2017-09-08T16:39:39.633Z,23.80
2017-09-08T16:41:42.132Z,23.80
2017-09-08T16:43:44.590Z,23.83
2017-09-08T16:45:47.064Z,23.87
2017-09-08T16:47:49.649Z,23.90
2017-09-08T16:49:52.105Z,23.87
2017-09-08T16:51:54.544Z,23.81
2017-09-08T16:53:57.009Z,23.84
2017-09-08T16:55:59.464Z,23.85
2017-09-08T16:58:01.960Z,23.83
2017-09-08T17:00:04.443Z,23.80
2017-09-08T17:02:06.978Z,23.85
2017-09-08T17:04:09.489Z,23.84
2017-09-08T17:06:11.995Z,23.86
2017-09-08T17:08:14.564Z,23.88
2017-09-08T17:10:17.088Z,23.82
2017-09-08T17:12:19.688Z,23.78
2017-09-08T17:14:22.117Z,23.81
2017-09-08T17:16:24.550Z,23.79
2017-09-08T17:18:27.085Z,23.78
2017-09-08T17:20:29.608Z,23.67
2017-09-08T17:22:32.068Z,23.59
2017-09-08T17:24:34.599Z,23.64
2017-09-08T17:26:37.181Z,23.66
2017-09-08T17:28:39.701Z,23.57
2017-09-08T17:30:42.280Z,23.56
2017-09-08T17:32:44.780Z,23.56
2017-09-08T17:34:47.360Z,23.54
2017-09-08T17:36:49.871Z,23.55
2017-09-08T17:38:52.420Z,23.48
2017-09-08T17:40:54.974Z,23.48
2017-09-08T17:42:57.547Z,23.56
2017-09-08T17:45:00.221Z,23.57
2017-09-08T17:47:02.795Z,23.54
2017-09-08T17:49:05.239Z,23.49
2017-09-08T17:51:07.742Z,23.52
2017-09-08T17:53:10.287Z,23.52
2017-09-08T17:55:12.768Z,23.48
2017-09-08T17:57:15.199Z,23.44
2017-09-08T17:59:17.655Z,23.49
2017-09-08T18:01:20.446Z,23.50
2017-09-08T18:03:22.956Z,23.57
2017-09-08T18:05:25.468Z,23.62
2017-09-08T18:07:27.993Z,23.59
2017-09-08T18:09:30.417Z,23.57
2017-09-08T18:11:32.900Z,23.50
2017-09-08T18:13:35.877Z,23.39
2017-09-08T18:15:38.321Z,23.39
2017-09-08T18:17:40.895Z,23.40
2017-09-08T18:19:43.348Z,23.42
2017-09-08T18:21:45.924Z,23.37
2017-09-08T18:23:48.401Z,23.27
2017-09-08T18:25:50.906Z,23.30
2017-09-08T18:27:53.452Z,23.28
2017-09-08T18:29:56.003Z,23.26
2017-09-08T18:31:58.504Z,23.33
2017-09-08T18:34:00.942Z,23.33
2017-09-08T18:36:03.432Z,23.32
2017-09-08T18:38:05.937Z,23.33
2017-09-08T18:40:08.384Z,23.33
2017-09-08T18:42:10.892Z,23.34
2017-09-08T18:44:13.400Z,23.36
2017-09-08T18:46:16.001Z,23.35
2017-09-08T18:48:18.479Z,23.29
2017-09-08T18:50:21.065Z,23.23
2017-09-08T18:52:23.750Z,23.17
2017-09-08T18:54:26.463Z,23.20
2017-09-08T18:56:28.992Z,23.27
2017-09-08T18:58:31.504Z,23.25
2017-09-08T19:00:33.998Z,23.27
2017-09-08T19:02:38.337Z,23.25
2017-09-08T19:04:41.646Z,23.26
2017-09-08T19:06:44.195Z,23.31
2017-09-08T19:08:46.742Z,23.33
2017-09-08T19:10:50.093Z,23.36
2017-09-08T19:12:52.644Z,23.39
2017-09-08T19:14:55.462Z,23.43
2017-09-08T19:16:57.968Z,23.44
2017-09-08T19:19:00.438Z,23.45
2017-09-08T19:21:02.916Z,23.45
2017-09-08T19:23:05.451Z,23.45
2017-09-08T19:25:08.013Z,23.40
2017-09-08T19:27:10.486Z,23.37
2017-09-08T19:29:13.003Z,23.34
2017-09-08T19:31:15.532Z,23.28
2017-09-08T19:33:17.998Z,23.26
2017-09-08T19:35:20.524Z,23.25
2017-09-08T19:37:23.140Z,23.27
2017-09-08T19:39:25.718Z,23.29
2017-09-08T19:41:28.176Z,23.34
2017-09-08T19:43:30.621Z,23.33
2017-09-08T19:45:33.077Z,23.33
2017-09-08T19:47:35.570Z,23.31
2017-09-08T19:49:38.112Z,23.35
2017-09-08T19:51:40.645Z,23.33
2017-09-08T19:53:43.077Z,23.29
2017-09-08T19:55:45.629Z,23.28
2017-09-08T19:57:48.219Z,23.24
2017-09-08T19:59:50.657Z,23.27
2017-09-08T20:01:53.099Z,23.22
2017-09-08T20:03:55.705Z,23.22
2017-09-08T20:05:58.179Z,23.19
2017-09-08T20:08:00.624Z,23.21
2017-09-08T20:10:03.094Z,23.25
2017-09-08T20:12:05.650Z,23.22
2017-09-08T20:14:08.141Z,23.21
2017-09-08T20:16:10.797Z,23.18
2017-09-08T20:18:13.233Z,23.22
2017-09-08T20:20:15.703Z,23.20
2017-09-08T20:22:18.368Z,23.20
2017-09-08T20:24:20.864Z,23.23
2017-09-08T20:26:23.435Z,23.23
2017-09-08T20:28:26.066Z,23.22
2017-09-08T20:30:28.563Z,23.22
2017-09-08T20:32:31.010Z,23.27
2017-09-08T20:34:33.553Z,23.25
2017-09-08T20:36:36.095Z,23.27
2017-09-08T20:38:38.539Z,23.21
2017-09-08T20:40:42.052Z,23.16
2017-09-08T20:42:44.548Z,23.17
2017-09-08T20:44:47.125Z,23.20
2017-09-08T20:46:49.756Z,23.20
2017-09-08T20:48:52.205Z,23.18
2017-09-08T20:50:54.637Z,23.17
2017-09-08T20:52:57.121Z,23.18
2017-09-08T20:54:59.567Z,23.06
2017-09-08T20:57:02.147Z,23.05
2017-09-08T20:59:04.615Z,22.99
2017-09-08T21:01:07.094Z,22.98
2017-09-08T21:03:09.524Z,23.05
2017-09-08T21:05:12.006Z,23.09
2017-09-08T21:07:14.440Z,23.13
2017-09-08T21:09:16.935Z,23.09
2017-09-08T21:11:19.440Z,23.01
2017-09-08T21:13:21.992Z,22.98
2017-09-08T21:15:24.432Z,23.01
2017-09-08T21:17:27.079Z,23.02
2017-09-08T21:19:29.604Z,23.02
2017-09-08T21:21:32.096Z,23.03
2017-09-08T21:23:34.982Z,23.01
2017-09-08T21:25:37.423Z,23.01
2017-09-08T21:27:39.955Z,23.09
2017-09-08T21:29:42.464Z,23.03
2017-09-08T21:31:45.006Z,23.03
2017-09-08T21:33:47.483Z,22.99
2017-09-08T21:35:49.948Z,23.01
2017-09-08T21:37:52.416Z,23.04
2017-09-08T21:39:54.942Z,23.06
2017-09-08T21:41:57.437Z,23.05
2017-09-08T21:43:59.867Z,23.01
2017-09-08T21:46:02.429Z,22.99
2017-09-08T21:48:04.886Z,23.00
2017-09-08T21:50:07.348Z,22.99
2017-09-08T21:52:09.967Z,22.95
2017-09-08T21:54:12.495Z,23.00
2017-09-08T21:56:14.925Z,23.02
2017-09-08T21:58:17.476Z,23.01
2017-09-08T22:00:20.033Z,23.07
2017-09-08T22:02:22.660Z,23.10
2017-09-08T22:04:25.100Z,23.10
2017-09-08T22:06:27.672Z,23.15
2017-09-08T22:08:30.273Z,23.12
2017-09-08T22:10:32.704Z,23.10
2017-09-08T22:12:35.211Z,23.05
2017-09-08T22:14:37.792Z,23.06
2017-09-08T22:16:40.306Z,23.08
2017-09-08T22:18:42.898Z,23.09
2017-09-08T22:20:45.409Z,23.01
2017-09-08T22:22:47.849Z,23.00
2017-09-08T22:24:51.392Z,23.04
2017-09-08T22:26:53.828Z,23.04
2017-09-08T22:28:56.379Z,22.97
2017-09-08T22:30:58.948Z,23.03
2017-09-08T22:33:01.405Z,23.00
2017-09-08T22:35:03.895Z,22.99
2017-09-08T22:37:06.462Z,23.00
2017-09-08T22:39:08.892Z,23.01
2017-09-08T22:41:11.328Z,22.99
2017-09-08T22:43:13.782Z,23.03
2017-09-08T22:45:16.244Z,23.05
2017-09-08T22:47:18.712Z,23.06
2017-09-08T22:49:21.286Z,23.07
2017-09-08T22:51:23.802Z,23.06
2017-09-08T22:53:26.315Z,23.00
2017-09-08T22:55:28.932Z,22.97
2017-09-08T22:57:31.408Z,23.01
2017-09-08T22:59:34.014Z,23.03
2017-09-08T23:01:36.618Z,23.06
2017-09-08T23:03:39.048Z,23.03
2017-09-08T23:05:41.510Z,23.03
2017-09-08T23:07:43.998Z,22.94
2017-09-08T23:09:46.429Z,23.00
2017-09-08T23:11:48.861Z,23.06
2017-09-08T23:13:51.439Z,23.04
2017-09-08T23:15:53.868Z,23.05
2017-09-08T23:17:56.351Z,23.04
2017-09-08T23:19:59.056Z,23.07
2017-09-08T23:22:01.588Z,23.05
2017-09-08T23:24:04.225Z,22.98
2017-09-08T23:26:06.834Z,22.99
2017-09-08T23:28:09.292Z,23.06
2017-09-08T23:30:11.768Z,23.08
2017-09-08T23:32:14.228Z,23.06
2017-09-08T23:34:16.754Z,23.04
2017-09-08T23:36:19.276Z,23.03
2017-09-08T23:38:21.811Z,23.03
2017-09-08T23:40:24.267Z,23.04
2017-09-08T23:42:26.781Z,23.03
2017-09-08T23:44:29.346Z,22.99
2017-09-08T23:46:31.840Z,23.00
2017-09-08T23:48:34.353Z,22.98
2017-09-08T23:50:36.860Z,22.98
2017-09-08T23:52:39.283Z,23.01
2017-09-08T23:54:41.721Z,23.01
2017-09-08T23:56:44.282Z,22.99
2017-09-08T23:58:46.780Z,22.97
